Terminal Aerodrome Forecast
Issued by NWS

Home | Current Version | Previous Version | Text Only | Print | Product List | Glossary On
Versions: 1 2 3 4 5 6 7 8 9 10 11 12 13 14 15
619
FTUS46 KSGX 240520
TAFCRQ
TAF
KCRQ 240520Z 2406/2506 19007KT P6SM BKN025
     FM241100 18009KT P6SM -DZ BKN020
     FM241600 19007KT P6SM BKN030
     FM241800 24011G18KT P6SM SCT025
     FM250000 25009KT P6SM BKN025=

USA.gov is the U.S. government's official web portal to all federal, state and local government web resources and services.